createdAt,value
2023-04-30T00:00:31.131Z,43.96
2023-04-30T00:02:02.772Z,44.10
2023-04-30T00:03:34.460Z,44.17
2023-04-30T00:05:06.774Z,43.68
2023-04-30T00:06:38.341Z,43.99
2023-04-30T00:08:09.896Z,43.83
2023-04-30T00:09:41.470Z,43.96
2023-04-30T00:11:13.025Z,43.51
2023-04-30T00:12:44.558Z,43.83
2023-04-30T00:14:16.444Z,44.08
2023-04-30T00:15:48.008Z,43.61
2023-04-30T00:17:19.601Z,43.51
2023-04-30T00:18:51.497Z,43.82
2023-04-30T00:20:23.439Z,43.62
2023-04-30T00:21:54.964Z,43.82
2023-04-30T00:23:26.564Z,43.91
2023-04-30T00:24:58.510Z,43.99
2023-04-30T00:26:30.274Z,43.85
2023-04-30T00:28:02.151Z,43.96
2023-04-30T00:29:33.725Z,44.56
2023-04-30T00:31:09.299Z,43.87
2023-04-30T00:32:41.132Z,44.49
2023-04-30T00:34:12.702Z,44.03
2023-04-30T00:35:44.544Z,44.66
2023-04-30T00:37:16.419Z,43.90
2023-04-30T00:38:48.098Z,44.80
2023-04-30T00:40:20.580Z,44.45
2023-04-30T00:41:52.254Z,43.87
2023-04-30T00:43:23.744Z,44.41
2023-04-30T00:44:55.407Z,44.86
2023-04-30T00:46:27.473Z,44.18
2023-04-30T00:47:59.290Z,44.81
2023-04-30T00:49:31.068Z,44.83
2023-04-30T00:51:03.643Z,44.39
2023-04-30T00:52:35.159Z,44.89
2023-04-30T00:54:06.846Z,44.70
2023-04-30T00:55:38.977Z,44.83
2023-04-30T00:57:11.892Z,44.66
2023-04-30T00:58:43.789Z,44.32
2023-04-30T01:00:16.459Z,45.23
2023-04-30T01:01:48.451Z,44.93
2023-04-30T01:03:20.302Z,44.79
2023-04-30T01:04:52.183Z,44.68
2023-04-30T01:06:24.271Z,44.79
2023-04-30T01:07:56.160Z,44.97
2023-04-30T01:09:28.387Z,44.56
2023-04-30T01:11:18.535Z,45.11
2023-04-30T01:12:50.043Z,44.50
2023-04-30T01:14:36.934Z,45.16
2023-04-30T01:16:28.944Z,44.99
2023-04-30T01:18:03.867Z,45.00
2023-04-30T01:19:37.098Z,45.15
2023-04-30T01:21:09.045Z,44.83
2023-04-30T01:22:48.743Z,45.57
2023-04-30T01:24:38.325Z,45.00
2023-04-30T01:26:16.838Z,45.14
2023-04-30T01:28:07.066Z,45.50
2023-04-30T01:29:38.912Z,44.94
2023-04-30T01:31:18.289Z,44.90
2023-04-30T01:32:49.982Z,45.38
2023-04-30T01:34:21.456Z,45.25
2023-04-30T01:35:56.209Z,45.42
2023-04-30T01:37:30.866Z,44.70
2023-04-30T01:39:05.439Z,44.92
2023-04-30T01:40:41.830Z,44.77
2023-04-30T01:42:14.324Z,45.71
2023-04-30T01:44:04.392Z,45.50
2023-04-30T01:45:47.725Z,45.33
2023-04-30T01:47:31.775Z,45.23
2023-04-30T01:49:20.323Z,45.79
2023-04-30T01:51:10.950Z,45.39
2023-04-30T01:52:42.526Z,45.07
2023-04-30T01:54:18.760Z,45.57
2023-04-30T01:55:52.678Z,45.52
2023-04-30T01:57:27.222Z,46.29
2023-04-30T01:58:59.276Z,45.85
2023-04-30T02:00:31.080Z,45.61
2023-04-30T02:02:02.599Z,46.21
2023-04-30T02:03:34.361Z,46.21
2023-04-30T02:05:06.596Z,45.65
2023-04-30T02:06:38.165Z,45.39
2023-04-30T02:08:09.833Z,45.43
2023-04-30T02:09:41.538Z,46.11
2023-04-30T02:11:15.701Z,45.68
2023-04-30T02:12:47.315Z,45.56
2023-04-30T02:14:18.852Z,46.28
2023-04-30T02:15:50.578Z,45.95
2023-04-30T02:17:22.193Z,46.26
2023-04-30T02:18:54.063Z,45.98
2023-04-30T02:20:26.200Z,45.93
2023-04-30T02:21:57.759Z,45.51
2023-04-30T02:23:29.346Z,45.53
2023-04-30T02:25:01.123Z,46.02
2023-04-30T02:26:32.649Z,45.51
2023-04-30T02:28:04.439Z,45.81
2023-04-30T02:29:36.253Z,46.01
2023-04-30T02:31:07.774Z,45.93
2023-04-30T02:32:39.524Z,45.94
2023-04-30T02:34:11.171Z,46.28
2023-04-30T02:35:42.751Z,46.06
2023-04-30T02:37:14.831Z,45.52
2023-04-30T02:38:47.096Z,45.92
2023-04-30T02:40:18.556Z,45.65
2023-04-30T02:41:50.093Z,46.25
2023-04-30T02:43:21.669Z,45.71
2023-04-30T02:44:58.050Z,45.65
2023-04-30T02:46:34.397Z,45.48
2023-04-30T02:48:06.600Z,46.97
2023-04-30T02:49:38.304Z,46.36
2023-04-30T02:51:09.862Z,46.77
2023-04-30T02:52:41.528Z,46.55
2023-04-30T02:54:13.102Z,46.08
2023-04-30T02:55:44.700Z,46.59
2023-04-30T02:57:16.328Z,46.43
2023-04-30T02:58:47.935Z,46.74
2023-04-30T03:00:19.912Z,46.50
2023-04-30T03:01:51.520Z,46.52
2023-04-30T03:03:23.466Z,46.72
2023-04-30T03:04:55.254Z,46.66
2023-04-30T03:06:27.000Z,46.95
2023-04-30T03:07:58.555Z,46.65
2023-04-30T03:09:31.124Z,46.80
2023-04-30T03:11:02.624Z,46.59
2023-04-30T03:12:34.647Z,47.02
2023-04-30T03:14:06.139Z,47.15
2023-04-30T03:15:37.647Z,46.66
2023-04-30T03:17:09.390Z,46.47
2023-04-30T03:18:40.857Z,47.21
2023-04-30T03:20:12.822Z,46.92
2023-04-30T03:21:44.324Z,46.96
2023-04-30T03:23:15.913Z,47.03
2023-04-30T03:24:47.376Z,47.33
2023-04-30T03:26:19.318Z,47.12
2023-04-30T03:27:50.839Z,47.07
2023-04-30T03:29:22.323Z,47.60
2023-04-30T03:30:53.826Z,47.13
2023-04-30T03:32:25.408Z,47.25
2023-04-30T03:33:56.998Z,47.05
2023-04-30T03:35:28.534Z,46.99
2023-04-30T03:37:01.926Z,46.59
2023-04-30T03:38:33.735Z,47.53
2023-04-30T03:40:05.491Z,47.49
2023-04-30T03:41:37.008Z,47.13
2023-04-30T03:43:08.552Z,47.46
2023-04-30T03:44:40.597Z,47.99
2023-04-30T03:46:12.165Z,47.51
2023-04-30T03:47:43.887Z,47.49
2023-04-30T03:49:15.986Z,47.25
2023-04-30T03:50:47.671Z,47.70
2023-04-30T03:52:19.196Z,48.13
2023-04-30T03:53:50.722Z,47.32
2023-04-30T03:55:22.209Z,47.61
2023-04-30T03:56:53.774Z,48.06
2023-04-30T03:58:25.511Z,47.85
2023-04-30T03:59:57.213Z,47.33
2023-04-30T04:01:29.490Z,47.95
2023-04-30T04:03:01.111Z,47.44
2023-04-30T04:04:33.410Z,47.29
2023-04-30T04:06:05.501Z,46.95
2023-04-30T04:07:37.188Z,46.99
2023-04-30T04:09:08.664Z,47.44
2023-04-30T04:10:43.307Z,47.35
2023-04-30T04:12:14.856Z,47.16
2023-04-30T04:13:47.066Z,47.11
2023-04-30T04:15:18.684Z,47.20
2023-04-30T04:16:50.194Z,47.52
2023-04-30T04:18:22.190Z,47.82
2023-04-30T04:19:54.679Z,47.44
2023-04-30T04:21:27.005Z,47.88
2023-04-30T04:22:58.538Z,47.43
2023-04-30T04:24:30.056Z,47.87
2023-04-30T04:26:01.769Z,47.85
2023-04-30T04:27:33.526Z,48.39
2023-04-30T04:29:05.094Z,48.22
2023-04-30T04:30:36.953Z,48.57
2023-04-30T04:32:10.506Z,48.33
2023-04-30T04:33:42.065Z,48.45
2023-04-30T04:35:14.520Z,48.61
2023-04-30T04:36:46.064Z,48.22
2023-04-30T04:38:18.190Z,48.19
2023-04-30T04:39:49.706Z,48.22
2023-04-30T04:41:21.746Z,48.01
2023-04-30T04:42:53.471Z,48.01
2023-04-30T04:44:25.414Z,48.12
2023-04-30T04:45:57.368Z,47.87
2023-04-30T04:47:29.254Z,47.82
2023-04-30T04:49:00.863Z,47.66
2023-04-30T04:50:32.509Z,47.84
2023-04-30T04:52:04.142Z,47.76
2023-04-30T04:53:36.661Z,47.68
2023-04-30T04:55:08.428Z,47.62
2023-04-30T04:56:40.150Z,47.90
2023-04-30T04:58:11.809Z,47.76
2023-04-30T04:59:43.936Z,47.78
2023-04-30T05:01:15.582Z,47.75
2023-04-30T05:02:47.349Z,47.82
2023-04-30T05:04:19.259Z,48.01
2023-04-30T05:05:50.993Z,47.96
2023-04-30T05:07:22.675Z,48.14
2023-04-30T05:08:54.408Z,47.97
2023-04-30T05:10:26.124Z,48.16
2023-04-30T05:11:57.756Z,48.03
2023-04-30T05:13:29.786Z,48.42
2023-04-30T05:15:01.548Z,48.02
2023-04-30T05:16:33.727Z,48.14
2023-04-30T05:18:06.123Z,48.15
2023-04-30T05:19:37.950Z,48.06
2023-04-30T05:21:09.728Z,48.26
2023-04-30T05:22:41.388Z,48.82
2023-04-30T05:24:12.984Z,48.59
2023-04-30T05:25:44.634Z,48.68
2023-04-30T05:27:16.909Z,48.56
2023-04-30T05:28:48.714Z,48.53
2023-04-30T05:30:20.659Z,48.60
2023-04-30T05:31:52.858Z,48.47
2023-04-30T05:33:25.021Z,48.10
2023-04-30T05:34:56.744Z,48.36
2023-04-30T05:36:29.778Z,48.23
2023-04-30T05:38:01.611Z,48.13
2023-04-30T05:39:33.282Z,48.00
2023-04-30T05:41:05.024Z,47.95
2023-04-30T05:42:38.481Z,48.42
2023-04-30T05:44:10.085Z,48.18
2023-04-30T05:45:41.755Z,48.15
2023-04-30T05:47:13.492Z,47.94
2023-04-30T05:48:45.138Z,48.27
2023-04-30T05:50:16.777Z,48.15
2023-04-30T05:51:48.334Z,48.27
2023-04-30T05:53:20.282Z,48.19
2023-04-30T05:54:52.018Z,48.16
2023-04-30T05:56:24.882Z,48.10
2023-04-30T05:57:56.532Z,48.41
2023-04-30T05:59:28.193Z,48.41
2023-04-30T06:00:59.826Z,48.37
2023-04-30T06:02:31.791Z,48.58
2023-04-30T06:04:05.234Z,48.73
2023-04-30T06:05:36.988Z,48.65
2023-04-30T06:07:08.668Z,48.76
2023-04-30T06:08:44.854Z,48.84
2023-04-30T06:10:17.009Z,48.78
2023-04-30T06:11:50.700Z,48.87
2023-04-30T06:13:22.503Z,48.61
2023-04-30T06:14:54.784Z,48.86
2023-04-30T06:16:26.645Z,48.63
2023-04-30T06:17:58.757Z,48.58
2023-04-30T06:19:30.815Z,48.53
2023-04-30T06:21:02.745Z,48.66
2023-04-30T06:22:34.606Z,48.47
2023-04-30T06:24:06.538Z,48.36
2023-04-30T06:25:38.566Z,48.44
2023-04-30T06:27:10.720Z,48.27
2023-04-30T06:28:42.388Z,48.52
2023-04-30T06:30:14.012Z,48.37
2023-04-30T06:31:45.839Z,48.27
2023-04-30T06:33:17.659Z,48.48
2023-04-30T06:34:50.109Z,48.63
2023-04-30T06:36:21.795Z,48.75
2023-04-30T06:37:53.385Z,48.50
2023-04-30T06:39:25.096Z,48.54
2023-04-30T06:40:57.898Z,48.79
2023-04-30T06:42:34.715Z,48.90
2023-04-30T06:44:07.008Z,48.98
2023-04-30T06:45:39.223Z,49.05
2023-04-30T06:47:10.933Z,48.99
2023-04-30T06:48:42.548Z,49.11
2023-04-30T06:50:15.836Z,49.08
2023-04-30T06:51:47.929Z,49.00
2023-04-30T06:53:20.349Z,49.19
2023-04-30T06:54:52.006Z,49.69
2023-04-30T06:56:25.222Z,49.50
2023-04-30T06:57:58.176Z,49.80
2023-04-30T06:59:30.557Z,49.42
2023-04-30T07:01:02.322Z,49.80
2023-04-30T07:02:33.971Z,49.26
2023-04-30T07:04:05.823Z,49.45
2023-04-30T07:05:37.600Z,49.29
2023-04-30T07:07:10.111Z,49.18
2023-04-30T07:08:44.068Z,49.22
2023-04-30T07:10:16.547Z,49.06
2023-04-30T07:11:48.888Z,49.04
2023-04-30T07:13:20.647Z,49.05
2023-04-30T07:14:52.398Z,49.35
2023-04-30T07:16:25.911Z,49.39
2023-04-30T07:17:57.991Z,49.30
2023-04-30T07:19:29.708Z,49.41
2023-04-30T07:21:01.796Z,49.18
2023-04-30T07:22:33.589Z,48.66
2023-04-30T07:24:05.713Z,48.52
2023-04-30T07:25:37.388Z,48.45
2023-04-30T07:27:09.087Z,48.42
2023-04-30T07:28:40.666Z,48.17
2023-04-30T07:30:12.441Z,48.04
2023-04-30T07:31:44.622Z,47.98
2023-04-30T07:33:17.032Z,47.82
2023-04-30T07:34:49.534Z,47.64
2023-04-30T07:36:21.497Z,47.58
2023-04-30T07:37:53.166Z,47.30
2023-04-30T07:39:24.852Z,47.13
2023-04-30T07:40:56.514Z,47.05
2023-04-30T07:42:28.118Z,46.89
2023-04-30T07:44:00.030Z,46.79
2023-04-30T07:45:31.923Z,46.76
2023-04-30T07:47:03.878Z,46.52
2023-04-30T07:48:35.509Z,46.39
2023-04-30T07:50:07.459Z,46.47
2023-04-30T07:51:39.663Z,46.24
2023-04-30T07:53:11.224Z,46.15
2023-04-30T07:54:42.856Z,46.15
2023-04-30T07:56:14.401Z,45.86
2023-04-30T07:57:46.060Z,45.84
2023-04-30T07:59:17.844Z,45.78
2023-04-30T08:00:50.122Z,45.49
2023-04-30T08:02:21.997Z,45.60
2023-04-30T08:03:53.792Z,45.58
2023-04-30T08:05:25.336Z,45.50
2023-04-30T08:06:57.004Z,45.54
2023-04-30T08:08:28.729Z,45.37
2023-04-30T08:10:00.293Z,45.20
2023-04-30T08:11:32.304Z,45.06
2023-04-30T08:13:04.516Z,45.18
2023-04-30T08:14:36.383Z,44.81
2023-04-30T08:16:08.059Z,44.90
2023-04-30T08:17:39.989Z,44.81
2023-04-30T08:19:11.723Z,44.87
2023-04-30T08:20:43.580Z,44.85
2023-04-30T08:22:15.680Z,44.62
2023-04-30T08:23:47.924Z,44.73
2023-04-30T08:25:19.495Z,44.72
2023-04-30T08:26:52.973Z,44.75
2023-04-30T08:28:25.861Z,44.89
2023-04-30T08:29:57.502Z,44.92
2023-04-30T08:31:29.297Z,44.86
2023-04-30T08:33:01.017Z,44.77
2023-04-30T08:34:32.852Z,44.87
2023-04-30T08:36:04.554Z,44.82
2023-04-30T08:37:36.307Z,44.62
2023-04-30T08:39:07.995Z,44.70
2023-04-30T08:40:51.156Z,44.63
2023-04-30T08:42:36.424Z,44.47
2023-04-30T08:44:23.206Z,44.49
2023-04-30T08:45:55.953Z,44.38
2023-04-30T08:47:28.091Z,44.30
2023-04-30T08:49:00.558Z,44.26
2023-04-30T08:50:32.740Z,44.50
2023-04-30T08:52:04.431Z,44.53
2023-04-30T08:53:37.000Z,44.36
2023-04-30T08:55:09.155Z,44.33
2023-04-30T08:56:41.570Z,44.42
2023-04-30T08:58:13.398Z,44.22
2023-04-30T08:59:45.778Z,44.26
2023-04-30T09:01:17.486Z,44.37
2023-04-30T09:02:50.093Z,44.18
2023-04-30T09:04:22.822Z,44.20
2023-04-30T09:05:55.437Z,43.96
2023-04-30T09:07:29.406Z,43.95
2023-04-30T09:09:10.127Z,43.97
2023-04-30T09:10:42.608Z,44.07
2023-04-30T09:12:19.596Z,43.96
2023-04-30T09:13:55.162Z,43.98
2023-04-30T09:15:26.756Z,43.75
2023-04-30T09:16:58.663Z,43.62
2023-04-30T09:18:30.606Z,43.92
2023-04-30T09:20:11.696Z,43.88
2023-04-30T09:21:43.488Z,43.74
2023-04-30T09:23:15.003Z,43.53
2023-04-30T09:24:48.115Z,43.69
2023-04-30T09:26:21.505Z,43.60
2023-04-30T09:28:23.812Z,43.69
2023-04-30T09:29:56.926Z,43.83
2023-04-30T09:31:28.736Z,43.38
2023-04-30T09:33:00.280Z,43.33
2023-04-30T09:34:36.112Z,43.35
2023-04-30T09:36:10.875Z,43.15
2023-04-30T09:37:42.470Z,43.30
2023-04-30T09:39:17.589Z,43.08
2023-04-30T09:40:49.825Z,43.10
2023-04-30T09:42:21.884Z,42.71
2023-04-30T09:43:54.351Z,42.69
2023-04-30T09:45:25.911Z,42.48
2023-04-30T09:46:58.208Z,42.17
2023-04-30T09:48:30.039Z,42.19
2023-04-30T09:50:01.606Z,41.89
2023-04-30T09:51:33.626Z,42.07
2023-04-30T09:53:10.870Z,41.89
2023-04-30T09:54:42.535Z,41.80
2023-04-30T09:56:14.342Z,41.62
2023-04-30T09:57:46.565Z,41.42
2023-04-30T09:59:18.300Z,41.34
2023-04-30T10:00:50.250Z,41.45
2023-04-30T10:02:23.450Z,41.27
2023-04-30T10:03:55.977Z,41.38
2023-04-30T10:05:27.616Z,41.40
2023-04-30T10:06:59.804Z,41.35
2023-04-30T10:08:36.615Z,41.44
2023-04-30T10:10:08.878Z,41.32
2023-04-30T10:11:42.384Z,41.20
2023-04-30T10:13:15.557Z,41.28
2023-04-30T10:14:57.594Z,41.16
2023-04-30T10:16:40.097Z,41.32
2023-04-30T10:18:14.815Z,41.24
2023-04-30T10:19:47.954Z,41.29
2023-04-30T10:21:21.589Z,41.31
2023-04-30T10:22:53.842Z,41.22
2023-04-30T10:24:26.368Z,40.99
2023-04-30T10:25:57.949Z,41.07
2023-04-30T10:27:30.150Z,41.20
2023-04-30T10:29:01.921Z,41.29
2023-04-30T10:30:33.514Z,41.55
2023-04-30T10:32:05.435Z,41.47
2023-04-30T10:33:52.292Z,41.61
2023-04-30T10:35:27.780Z,41.50
2023-04-30T10:37:09.753Z,41.71
2023-04-30T10:38:41.344Z,41.28
2023-04-30T10:40:14.956Z,41.21
2023-04-30T10:41:49.591Z,41.12
2023-04-30T10:43:22.247Z,41.07
2023-04-30T10:44:53.873Z,41.04
2023-04-30T10:46:25.737Z,41.09
2023-04-30T10:47:58.223Z,40.77
2023-04-30T10:49:29.962Z,40.64
2023-04-30T10:51:01.535Z,40.68
2023-04-30T10:52:33.153Z,40.67
2023-04-30T10:54:04.667Z,40.54
2023-04-30T10:55:41.924Z,40.23
2023-04-30T10:57:22.995Z,40.91
2023-04-30T10:58:55.137Z,41.18
2023-04-30T11:00:29.489Z,41.28
2023-04-30T11:02:01.666Z,41.36
2023-04-30T11:03:34.445Z,41.62
2023-04-30T11:05:13.568Z,41.59
2023-04-30T11:06:54.223Z,41.82
2023-04-30T11:08:37.867Z,41.71
2023-04-30T11:10:10.000Z,41.94
2023-04-30T11:11:41.707Z,42.01
2023-04-30T11:13:13.194Z,42.05
2023-04-30T11:14:45.142Z,42.08
2023-04-30T11:16:16.773Z,41.70
2023-04-30T11:17:51.602Z,41.64
2023-04-30T11:19:24.960Z,41.44
2023-04-30T11:20:57.642Z,41.28
2023-04-30T11:22:36.446Z,41.25
2023-04-30T11:24:08.159Z,41.28
2023-04-30T11:25:40.590Z,41.05
2023-04-30T11:27:13.250Z,40.98
2023-04-30T11:28:50.733Z,40.70
2023-04-30T11:30:22.322Z,40.76
2023-04-30T11:31:53.949Z,40.78
2023-04-30T11:33:26.310Z,40.81
2023-04-30T11:34:58.369Z,40.53
2023-04-30T11:36:31.349Z,40.47
2023-04-30T11:38:04.507Z,40.54
2023-04-30T11:39:36.450Z,40.32
2023-04-30T11:41:08.442Z,40.40
2023-04-30T11:42:42.000Z,40.27
2023-04-30T11:44:26.064Z,40.13
2023-04-30T11:46:10.405Z,39.96
2023-04-30T11:47:45.743Z,39.84
2023-04-30T11:49:17.640Z,39.86
2023-04-30T11:50:49.391Z,39.64
2023-04-30T11:52:21.872Z,39.76
2023-04-30T11:53:54.057Z,39.52
2023-04-30T11:55:25.978Z,39.56
2023-04-30T11:57:03.955Z,39.28
2023-04-30T11:58:38.126Z,39.08
2023-04-30T12:00:13.997Z,38.81
2023-04-30T12:01:45.614Z,38.96
2023-04-30T12:03:19.614Z,38.74
2023-04-30T12:04:51.399Z,38.88
2023-04-30T12:06:24.127Z,38.90
2023-04-30T12:08:07.072Z,38.64
2023-04-30T12:09:57.491Z,38.79
2023-04-30T12:11:29.654Z,39.03
2023-04-30T12:13:01.141Z,38.85
2023-04-30T12:14:34.989Z,38.68
2023-04-30T12:16:07.078Z,38.58
2023-04-30T12:17:38.766Z,38.64
2023-04-30T12:19:10.437Z,38.62
2023-04-30T12:20:42.100Z,38.53
2023-04-30T12:22:15.000Z,38.46
2023-04-30T12:23:46.718Z,38.46
2023-04-30T12:25:18.890Z,38.43
2023-04-30T12:26:50.775Z,38.37
2023-04-30T12:28:23.758Z,38.19
2023-04-30T12:29:56.679Z,38.19
2023-04-30T12:31:28.374Z,38.30
2023-04-30T12:33:00.638Z,38.01
2023-04-30T12:34:33.811Z,38.02
2023-04-30T12:36:05.691Z,38.00
2023-04-30T12:37:37.333Z,38.16
2023-04-30T12:39:09.928Z,38.11
2023-04-30T12:40:46.422Z,37.98
2023-04-30T12:42:21.494Z,37.83
2023-04-30T12:44:12.962Z,37.70
2023-04-30T12:45:55.173Z,37.55
2023-04-30T12:47:26.769Z,37.55
2023-04-30T12:49:00.203Z,37.64
2023-04-30T12:50:31.763Z,37.50
2023-04-30T12:52:04.978Z,37.30
2023-04-30T12:53:37.450Z,37.43
2023-04-30T12:55:19.680Z,37.35
2023-04-30T12:57:11.082Z,37.43
2023-04-30T12:58:45.667Z,37.10
2023-04-30T13:00:17.337Z,37.27
2023-04-30T13:01:48.972Z,37.44
2023-04-30T13:03:21.397Z,37.21
2023-04-30T13:04:53.844Z,36.93
2023-04-30T13:06:25.743Z,36.80
2023-04-30T13:08:02.361Z,36.93
2023-04-30T13:09:34.646Z,36.57
2023-04-30T13:11:07.113Z,36.78
2023-04-30T13:12:38.868Z,36.75
2023-04-30T13:14:11.568Z,36.47
2023-04-30T13:15:43.737Z,36.76
2023-04-30T13:17:15.566Z,36.36
2023-04-30T13:18:47.985Z,36.60
2023-04-30T13:20:19.565Z,36.38
2023-04-30T13:21:51.358Z,36.22
2023-04-30T13:23:23.039Z,36.41
2023-04-30T13:24:55.163Z,36.27
2023-04-30T13:26:27.240Z,36.13
2023-04-30T13:27:59.457Z,36.34
2023-04-30T13:29:32.193Z,36.19
2023-04-30T13:31:04.543Z,36.47
2023-04-30T13:32:37.768Z,36.22
2023-04-30T13:34:10.992Z,36.34
2023-04-30T13:35:42.617Z,36.42
2023-04-30T13:37:14.757Z,36.27
2023-04-30T13:38:48.015Z,36.28
2023-04-30T13:40:20.322Z,36.52
2023-04-30T13:41:52.045Z,36.50
2023-04-30T13:43:24.605Z,36.44
2023-04-30T13:44:56.402Z,36.40
2023-04-30T13:46:28.208Z,36.45
2023-04-30T13:48:00.051Z,36.30
2023-04-30T13:49:32.343Z,36.33
2023-04-30T13:51:04.318Z,36.09
2023-04-30T13:52:36.506Z,36.37
2023-04-30T13:54:08.452Z,36.04
2023-04-30T13:55:40.110Z,36.14
2023-04-30T13:57:11.839Z,36.01
2023-04-30T13:58:43.514Z,36.09
2023-04-30T14:00:16.141Z,36.09
2023-04-30T14:01:47.717Z,35.61
2023-04-30T14:03:19.440Z,35.77
2023-04-30T14:05:02.551Z,35.63
2023-04-30T14:06:39.091Z,35.64
2023-04-30T14:08:11.207Z,35.78
2023-04-30T14:09:42.783Z,35.58
2023-04-30T14:11:15.393Z,35.24
2023-04-30T14:12:47.458Z,35.18
2023-04-30T14:14:19.150Z,35.51
2023-04-30T14:15:50.795Z,35.19
2023-04-30T14:17:22.671Z,35.40
2023-04-30T14:18:54.395Z,35.40
2023-04-30T14:20:26.100Z,35.48
2023-04-30T14:21:57.686Z,35.13
2023-04-30T14:23:29.606Z,35.05
2023-04-30T14:25:01.186Z,35.26
2023-04-30T14:26:32.855Z,35.06
2023-04-30T14:28:04.555Z,35.19
2023-04-30T14:29:36.270Z,35.17
2023-04-30T14:31:08.067Z,35.15
2023-04-30T14:32:39.736Z,35.10
2023-04-30T14:34:11.648Z,35.13
2023-04-30T14:35:44.074Z,35.32
2023-04-30T14:37:17.067Z,35.20
2023-04-30T14:38:48.686Z,35.08
2023-04-30T14:40:20.303Z,34.92
2023-04-30T14:41:53.488Z,34.73
2023-04-30T14:43:25.213Z,34.62
2023-04-30T14:44:56.896Z,34.65
2023-04-30T14:46:28.910Z,34.54
2023-04-30T14:48:02.582Z,34.59
2023-04-30T14:49:36.706Z,34.63
2023-04-30T14:51:08.616Z,34.49
2023-04-30T14:52:40.530Z,34.55
2023-04-30T14:54:12.069Z,34.35
2023-04-30T14:55:43.686Z,34.40
2023-04-30T14:57:15.882Z,34.40
2023-04-30T14:58:48.340Z,34.53
2023-04-30T15:00:20.088Z,34.74
2023-04-30T15:01:51.732Z,34.83
2023-04-30T15:03:23.789Z,34.60
2023-04-30T15:04:55.495Z,34.64
2023-04-30T15:06:29.041Z,34.38
2023-04-30T15:08:01.810Z,34.48
2023-04-30T15:09:33.483Z,34.50
2023-04-30T15:11:07.189Z,34.22
2023-04-30T15:12:39.693Z,34.37
2023-04-30T15:14:12.200Z,34.22
2023-04-30T15:15:47.245Z,34.23
2023-04-30T15:17:18.927Z,34.22
2023-04-30T15:18:51.207Z,34.11
2023-04-30T15:20:23.445Z,33.96
2023-04-30T15:21:55.070Z,33.98
2023-04-30T15:23:27.427Z,34.07
2023-04-30T15:24:59.374Z,34.13
2023-04-30T15:26:31.400Z,33.95
2023-04-30T15:28:03.405Z,33.93
2023-04-30T15:29:35.318Z,33.91
2023-04-30T15:31:07.052Z,33.87
2023-04-30T15:32:39.077Z,33.96
2023-04-30T15:34:11.162Z,34.05
2023-04-30T15:35:42.947Z,34.02
2023-04-30T15:37:14.806Z,33.95
2023-04-30T15:38:46.935Z,33.84
2023-04-30T15:40:18.752Z,33.82
2023-04-30T15:41:50.399Z,33.86
2023-04-30T15:43:21.975Z,33.95
2023-04-30T15:44:53.520Z,33.83
2023-04-30T15:46:25.109Z,33.95
2023-04-30T15:47:56.753Z,33.77
2023-04-30T15:49:28.572Z,33.80
2023-04-30T15:51:00.339Z,33.87
2023-04-30T15:52:32.080Z,34.03
2023-04-30T15:54:04.132Z,34.00
2023-04-30T15:55:36.268Z,34.04
2023-04-30T15:57:07.815Z,34.16
2023-04-30T15:58:39.549Z,33.93
2023-04-30T16:00:12.948Z,34.06
2023-04-30T16:01:44.721Z,34.13
2023-04-30T16:03:16.979Z,33.92
2023-04-30T16:04:49.371Z,34.00
2023-04-30T16:06:21.396Z,34.17
2023-04-30T16:07:54.499Z,34.23
2023-04-30T16:09:27.719Z,34.22
2023-04-30T16:11:00.055Z,34.23
2023-04-30T16:12:32.078Z,34.37
2023-04-30T16:14:03.730Z,34.10
2023-04-30T16:15:35.329Z,34.25
2023-04-30T16:17:07.207Z,34.45
2023-04-30T16:18:38.934Z,34.43
2023-04-30T16:20:12.306Z,34.48
2023-04-30T16:21:43.916Z,34.50
2023-04-30T16:23:16.445Z,34.49
2023-04-30T16:24:48.129Z,34.37
2023-04-30T16:26:19.751Z,34.36
2023-04-30T16:27:51.833Z,34.44
2023-04-30T16:29:23.589Z,34.15
2023-04-30T16:30:55.558Z,34.49
2023-04-30T16:32:27.485Z,34.59
2023-04-30T16:33:59.124Z,34.44
2023-04-30T16:35:31.400Z,34.36
2023-04-30T16:37:03.311Z,34.56
2023-04-30T16:38:35.263Z,34.62
2023-04-30T16:40:08.325Z,34.65
2023-04-30T16:41:40.029Z,34.83
2023-04-30T16:43:12.808Z,34.78
2023-04-30T16:44:44.498Z,34.75
2023-04-30T16:46:16.232Z,34.72
2023-04-30T16:47:48.967Z,34.60
2023-04-30T16:49:21.391Z,34.67
2023-04-30T16:50:53.310Z,34.79
2023-04-30T16:52:24.832Z,34.77
2023-04-30T16:53:56.395Z,34.78
2023-04-30T16:55:28.680Z,34.77
2023-04-30T16:57:00.230Z,34.70
2023-04-30T16:58:31.882Z,34.73
2023-04-30T17:00:03.966Z,34.57
2023-04-30T17:01:35.884Z,34.66
2023-04-30T17:03:07.607Z,34.76
2023-04-30T17:04:39.454Z,34.72
2023-04-30T17:06:12.256Z,34.59
2023-04-30T17:07:44.806Z,34.70
2023-04-30T17:09:17.309Z,34.80
2023-04-30T17:10:49.084Z,35.02
2023-04-30T17:12:21.184Z,34.88
2023-04-30T17:13:54.957Z,35.07
2023-04-30T17:15:26.878Z,35.07
2023-04-30T17:16:58.759Z,35.26
2023-04-30T17:18:30.506Z,35.49
2023-04-30T17:20:02.188Z,35.55
2023-04-30T17:21:34.457Z,35.66
2023-04-30T17:23:06.115Z,35.72
2023-04-30T17:24:37.774Z,35.83
2023-04-30T17:26:09.647Z,35.82
2023-04-30T17:27:41.266Z,35.75
2023-04-30T17:29:13.656Z,35.92
2023-04-30T17:30:45.424Z,35.87
2023-04-30T17:32:18.015Z,35.90
2023-04-30T17:33:49.977Z,35.89
2023-04-30T17:35:22.454Z,35.84
2023-04-30T17:36:54.212Z,36.08
2023-04-30T17:38:26.025Z,35.87
2023-04-30T17:39:57.917Z,35.94
2023-04-30T17:41:29.915Z,35.97
2023-04-30T17:43:01.593Z,35.85
2023-04-30T17:44:33.855Z,35.82
2023-04-30T17:46:05.649Z,35.91
2023-04-30T17:47:37.837Z,35.88
2023-04-30T17:49:09.666Z,35.98
2023-04-30T17:50:41.328Z,35.97
2023-04-30T17:52:13.005Z,35.93
2023-04-30T17:53:44.615Z,35.87
2023-04-30T17:55:16.662Z,35.95
2023-04-30T17:56:48.700Z,36.05
2023-04-30T17:58:21.663Z,35.93
2023-04-30T17:59:53.956Z,36.15
2023-04-30T18:01:26.229Z,36.18
2023-04-30T18:02:58.056Z,36.16
2023-04-30T18:04:29.738Z,36.46
2023-04-30T18:06:01.395Z,36.49
2023-04-30T18:07:33.405Z,36.65
2023-04-30T18:09:05.162Z,36.68
2023-04-30T18:10:37.410Z,36.93
2023-04-30T18:12:09.043Z,37.20
2023-04-30T18:13:40.633Z,37.36
2023-04-30T18:15:13.790Z,37.19
2023-04-30T18:16:46.630Z,37.18
2023-04-30T18:18:18.679Z,37.27
2023-04-30T18:19:50.726Z,37.28
2023-04-30T18:21:22.392Z,37.65
2023-04-30T18:22:54.152Z,37.35
2023-04-30T18:24:28.125Z,37.67
2023-04-30T18:25:59.804Z,37.44
2023-04-30T18:27:34.181Z,37.53
2023-04-30T18:29:07.266Z,37.47
2023-04-30T18:30:39.369Z,37.46
2023-04-30T18:32:12.797Z,37.62
2023-04-30T18:33:45.043Z,37.64
2023-04-30T18:35:16.892Z,37.57
2023-04-30T18:36:48.596Z,37.75
2023-04-30T18:38:20.755Z,37.83
2023-04-30T18:39:52.642Z,37.83
2023-04-30T18:41:27.028Z,38.07
2023-04-30T18:42:59.137Z,38.14
2023-04-30T18:44:34.018Z,38.04
2023-04-30T18:46:06.092Z,38.04
2023-04-30T18:47:38.545Z,38.26
2023-04-30T18:49:10.272Z,38.61
2023-04-30T18:50:43.246Z,38.42
2023-04-30T18:52:15.588Z,38.38
2023-04-30T18:53:48.033Z,38.85
2023-04-30T18:55:19.877Z,38.61
2023-04-30T18:56:51.545Z,38.82
2023-04-30T18:58:23.987Z,38.46
2023-04-30T18:59:56.146Z,38.90
2023-04-30T19:01:28.632Z,38.63
2023-04-30T19:03:01.003Z,38.67
2023-04-30T19:04:32.784Z,38.91
2023-04-30T19:06:05.586Z,38.95
2023-04-30T19:07:37.300Z,39.06
2023-04-30T19:09:09.509Z,38.80
2023-04-30T19:10:41.233Z,38.96
2023-04-30T19:12:15.185Z,38.79
2023-04-30T19:13:47.089Z,38.99
2023-04-30T19:15:18.876Z,39.14
2023-04-30T19:16:50.556Z,39.20
2023-04-30T19:18:24.887Z,38.79
2023-04-30T19:20:00.221Z,39.18
2023-04-30T19:21:34.806Z,39.26
2023-04-30T19:23:08.213Z,39.45
2023-04-30T19:24:40.444Z,39.11
2023-04-30T19:26:11.984Z,39.09
2023-04-30T19:27:44.618Z,39.15
2023-04-30T19:29:16.484Z,39.11
2023-04-30T19:30:51.349Z,39.40
2023-04-30T19:32:23.384Z,39.07
2023-04-30T19:33:55.593Z,38.90
2023-04-30T19:35:27.239Z,38.73
2023-04-30T19:36:59.140Z,38.55
2023-04-30T19:38:30.745Z,38.70
2023-04-30T19:40:02.467Z,38.75
2023-04-30T19:41:34.110Z,38.69
2023-04-30T19:43:06.143Z,38.87
2023-04-30T19:44:38.102Z,38.80
2023-04-30T19:46:10.602Z,38.88
2023-04-30T19:47:42.619Z,39.02
2023-04-30T19:49:14.315Z,38.91
2023-04-30T19:50:46.972Z,39.08
2023-04-30T19:52:18.982Z,39.17
2023-04-30T19:53:52.175Z,39.01
2023-04-30T19:55:23.871Z,39.09